Time;durP1;ratioP1;P1;durP2;ratioP2;P2;SDS_P1;SDS_P2;PMS_P1;PMS_P2;Temp;Humidity;BMP_temperature;BMP_pressure;BME280_temperature;BME280_humidity;BME280_pressure;Samples;Min_cycle;Max_cycle;Signal;HPM_P1;HPM_P2
2024/01/27 00:02:01;;;;;;;0.77;0.40;;;17.70;61.70;;;;;;6135212;23;20151;-81
2024/01/27 00:04:26;;;;;;;0.50;0.47;;;17.70;61.70;;;;;;6136530;23;20566;-82
2024/01/27 00:06:52;;;;;;;0.55;0.40;;;17.70;61.70;;;;;;6136604;23;20135;-83
2024/01/27 00:09:18;;;;;;;0.60;0.50;;;17.70;61.60;;;;;;6187325;23;20802;-83
2024/01/27 00:11:44;;;;;;;1.27;0.50;;;17.70;61.60;;;;;;6186928;23;20135;-79
2024/01/27 00:14:09;;;;;;;1.48;0.60;;;17.70;61.60;;;;;;6186698;23;20170;-82
2024/01/27 00:16:35;;;;;;;0.98;0.70;;;17.60;61.60;;;;;;6135758;23;20197;-82
2024/01/27 00:19:02;;;;;;;0.65;0.50;;;17.70;61.60;;;;;;6158988;23;20147;-81
2024/01/27 00:21:34;;;;;;;1.02;0.52;;;17.70;61.70;;;;;;6136036;23;20263;-82
2024/01/27 00:24:03;;;;;;;0.85;0.55;;;17.70;61.70;;;;;;6085735;23;20163;-82
2024/01/27 00:26:29;;;;;;;0.50;0.45;;;17.70;61.70;;;;;;6136327;23;20123;-81
2024/01/27 00:28:55;;;;;;;0.70;0.50;;;17.70;61.60;;;;;;6110758;23;20566;-81
2024/01/27 00:31:21;;;;;;;1.65;0.40;;;17.70;61.60;;;;;;6160878;23;20146;-84
2024/01/27 00:33:47;;;;;;;1.50;0.50;;;17.70;61.60;;;;;;6159952;23;20250;-84
2024/01/27 00:36:13;;;;;;;0.77;0.43;;;17.70;61.60;;;;;;6159370;23;20154;-83
2024/01/27 00:38:39;;;;;;;0.88;0.57;;;17.70;61.70;;;;;;6135420;23;20147;-84
2024/01/27 00:41:05;;;;;;;0.88;0.63;;;17.70;61.60;;;;;;6135233;23;20251;-81
2024/01/27 00:43:34;;;;;;;1.75;0.60;;;17.70;61.40;;;;;;6135360;23;20227;-83
2024/01/27 00:46:00;;;;;;;0.45;0.45;;;17.60;61.60;;;;;;6160377;23;20285;-83
2024/01/27 00:48:26;;;;;;;0.70;0.45;;;17.70;61.60;;;;;;6159334;23;20210;-82
2024/01/27 00:50:52;;;;;;;0.43;0.40;;;17.60;61.60;;;;;;6085264;23;20178;-82
2024/01/27 00:53:22;;;;;;;1.00;0.50;;;17.60;61.60;;;;;;6158282;23;20166;-84
2024/01/27 00:55:48;;;;;;;0.95;0.50;;;17.70;61.60;;;;;;6106900;23;20150;-83
2024/01/27 00:58:13;;;;;;;0.50;0.40;;;17.70;61.40;;;;;;6135478;23;20158;-82
2024/01/27 01:00:39;;;;;;;0.68;0.52;;;17.60;61.40;;;;;;6135646;23;20131;-81
2024/01/27 01:03:05;;;;;;;0.60;0.40;;;17.70;61.60;;;;;;6159540;23;20189;-83
2024/01/27 01:05:31;;;;;;;1.70;0.52;;;17.70;62.50;;;;;;6158328;23;20130;-83
2024/01/27 01:23:26;;;;;;;0.50;0.50;;;17.70;61.20;;;;;;6146719;23;20198;-83
2024/01/27 01:25:52;;;;;;;1.30;0.50;;;17.70;61.50;;;;;;6134568;23;20447;-83
2024/01/27 01:28:18;;;;;;;0.50;0.50;;;17.70;61.40;;;;;;6186269;23;20160;-83
2024/01/27 01:30:44;;;;;;;0.88;0.60;;;17.70;61.40;;;;;;6079055;23;20208;-82
2024/01/27 01:33:12;;;;;;;0.57;0.40;;;17.70;61.40;;;;;;6098996;23;20210;-81
2024/01/27 01:35:38;;;;;;;0.65;0.45;;;17.70;61.40;;;;;;6133270;23;20562;-82
2024/01/27 01:38:06;;;;;;;1.02;0.50;;;17.70;61.30;;;;;;6134841;23;20138;-81
2024/01/27 01:42:59;;;;;;;0.95;0.60;;;17.70;61.50;;;;;;6155251;23;20203;-83
2024/01/27 01:48:29;;;;;;;0.65;0.43;;;17.60;61.40;;;;;;6153132;23;20211;-84
2024/01/27 01:50:55;;;;;;;0.47;0.35;;;17.70;61.40;;;;;;6134593;23;20186;-84
2024/01/27 01:55:49;;;;;;;0.50;0.50;;;17.70;61.40;;;;;;6156132;23;20665;-83
2024/01/27 01:58:16;;;;;;;1.85;0.57;;;17.70;61.50;;;;;;6157278;23;20139;-82
2024/01/27 02:00:42;;;;;;;1.73;0.60;;;17.70;61.40;;;;;;6158159;23;20217;-83
2024/01/27 02:03:12;;;;;;;0.77;0.50;;;17.60;61.30;;;;;;6110931;23;20225;-84
2024/01/27 02:05:38;;;;;;;0.95;0.40;;;17.60;61.40;;;;;;6134742;23;20138;-85
2024/01/27 02:08:05;;;;;;;0.93;0.50;;;17.60;61.40;;;;;;6158821;23;20145;-81
2024/01/27 02:10:37;;;;;;;0.65;0.50;;;17.70;61.30;;;;;;6157169;23;20132;-84
2024/01/27 02:13:05;;;;;;;0.75;0.50;;;17.70;61.50;;;;;;6110342;23;20257;-80
2024/01/27 02:15:31;;;;;;;0.45;0.45;;;17.60;61.40;;;;;;6113703;23;20210;-80
2024/01/27 02:17:57;;;;;;;0.40;0.40;;;17.60;61.20;;;;;;6135108;23;20146;-81
2024/01/27 02:20:23;;;;;;;0.50;0.50;;;17.60;61.40;;;;;;6158904;23;20205;-82
2024/01/27 02:22:50;;;;;;;0.45;0.40;;;17.60;61.20;;;;;;6133598;23;20672;-82
2024/01/27 02:25:16;;;;;;;0.60;0.57;;;17.70;61.40;;;;;;6159172;23;20147;-83
2024/01/27 02:27:41;;;;;;;1.10;0.57;;;17.70;61.60;;;;;;6153408;23;20210;-80
2024/01/27 02:30:07;;;;;;;0.85;0.43;;;17.60;61.30;;;;;;6158972;23;20153;-82
2024/01/27 02:32:33;;;;;;;0.60;0.60;;;17.60;61.30;;;;;;6170871;23;20197;-82
2024/01/27 02:34:59;;;;;;;1.00;0.40;;;17.70;61.40;;;;;;6135017;23;20513;-83
2024/01/27 02:37:25;;;;;;;0.57;0.50;;;17.70;61.20;;;;;;6134478;23;20150;-83
2024/01/27 02:39:51;;;;;;;0.50;0.50;;;17.60;61.20;;;;;;6133763;23;20142;-83
2024/01/27 02:42:17;;;;;;;0.30;0.30;;;17.70;61.20;;;;;;6158988;23;20138;-81
2024/01/27 02:44:42;;;;;;;0.75;0.50;;;17.70;61.20;;;;;;6130950;23;20161;-81
2024/01/27 02:47:08;;;;;;;1.02;0.60;;;17.70;61.20;;;;;;6155373;23;20190;-84
2024/01/27 02:49:34;;;;;;;0.65;0.50;;;17.60;61.20;;;;;;6129411;23;20547;-85
2024/01/27 02:52:00;;;;;;;0.60;0.40;;;17.60;61.30;;;;;;6152153;23;20147;-81
2024/01/27 02:54:27;;;;;;;0.50;0.50;;;17.60;61.20;;;;;;6128591;23;20176;-81
2024/01/27 02:59:28;;;;;;;0.50;0.50;;;17.70;61.20;;;;;;6154877;23;20589;-81
2024/01/27 03:04:33;;;;;;;0.77;0.45;;;17.60;61.40;;;;;;6155666;23;20269;-85
2024/01/27 03:07:19;;;;;;;0.40;0.40;;;17.60;62.20;;;;;;6035126;23;20182;-83
2024/01/27 03:09:44;;;;;;;1.60;0.68;;;17.60;61.30;;;;;;6155607;23;20190;-81
2024/01/27 03:17:13;;;;;;;0.70;0.70;;;17.60;61.30;;;;;;6154917;23;20537;-82
2024/01/27 03:19:39;;;;;;;0.95;0.50;;;17.70;61.20;;;;;;6132525;23;20147;-81
2024/01/27 03:22:05;;;;;;;1.38;0.65;;;17.60;61.30;;;;;;6157378;23;20467;-82
2024/01/27 03:24:30;;;;;;;1.50;0.55;;;17.60;61.30;;;;;;6155506;23;20128;-82
2024/01/27 03:26:56;;;;;;;0.85;0.55;;;17.60;61.10;;;;;;6131650;23;20151;-81
2024/01/27 03:29:22;;;;;;;0.55;0.50;;;17.60;61.20;;;;;;6154998;23;20476;-83
2024/01/27 03:31:49;;;;;;;1.30;0.40;;;17.60;61.40;;;;;;6157314;23;20136;-84
2024/01/27 03:34:15;;;;;;;0.60;0.50;;;17.60;61.20;;;;;;6155102;23;20201;-84
2024/01/27 03:36:40;;;;;;;0.75;0.55;;;17.70;61.30;;;;;;6156316;23;20232;-84
2024/01/27 03:39:07;;;;;;;0.50;0.50;;;17.60;61.30;;;;;;6155951;23;20139;-83
2024/01/27 03:41:33;;;;;;;0.43;0.43;;;17.70;61.20;;;;;;6155283;23;20155;-82
2024/01/27 03:43:59;;;;;;;0.50;0.40;;;17.60;61.10;;;;;;6155967;23;20170;-81
2024/01/27 03:46:25;;;;;;;1.05;0.60;;;17.60;61.20;;;;;;6131587;23;20681;-81
2024/01/27 03:48:51;;;;;;;0.82;0.60;;;17.60;61.20;;;;;;6129865;23;20568;-83
2024/01/27 03:53:42;;;;;;;0.40;0.40;;;17.60;61.00;;;;;;6151510;23;20323;-82
2024/01/27 03:56:12;;;;;;;0.63;0.60;;;17.70;61.20;;;;;;6155263;23;20572;-84
2024/01/27 03:58:38;;;;;;;0.52;0.52;;;17.60;61.30;;;;;;6130488;23;20178;-83
2024/01/27 04:01:04;;;;;;;0.52;0.50;;;17.60;61.20;;;;;;6155895;23;20130;-82
2024/01/27 04:05:55;;;;;;;0.47;0.40;;;17.60;61.10;;;;;;6153569;23;20772;-80
2024/01/27 04:08:21;;;;;;;0.60;0.47;;;17.70;61.30;;;;;;6157735;23;20615;-81
2024/01/27 04:10:47;;;;;;;0.52;0.50;;;17.60;61.10;;;;;;6130942;23;20836;-82
2024/01/27 04:13:13;;;;;;;0.50;0.50;;;17.70;61.00;;;;;;6120310;23;20217;-82
2024/01/27 04:15:42;;;;;;;0.90;0.68;;;17.60;61.20;;;;;;6078164;23;20191;-82
2024/01/27 04:18:08;;;;;;;0.60;0.50;;;17.70;61.30;;;;;;6102537;23;20132;-82
2024/01/27 04:20:34;;;;;;;0.60;0.50;;;17.70;61.30;;;;;;6060690;23;20225;-81
2024/01/27 04:23:01;;;;;;;0.60;0.50;;;17.60;61.10;;;;;;6156001;23;20148;-81
2024/01/27 04:25:28;;;;;;;0.40;0.40;;;17.60;61.10;;;;;;6130751;23;20195;-80
2024/01/27 04:27:54;;;;;;;0.50;0.50;;;17.60;61.10;;;;;;6154969;23;20238;-82
2024/01/27 04:32:46;;;;;;;0.75;0.50;;;17.60;61.10;;;;;;6150802;23;20297;-81
2024/01/27 04:35:16;;;;;;;0.55;0.40;;;17.60;61.30;;;;;;6161030;23;20138;-85
2024/01/27 04:37:41;;;;;;;0.50;0.50;;;17.60;61.20;;;;;;6160313;23;20186;-82
2024/01/27 04:40:08;;;;;;;0.40;0.40;;;17.60;61.20;;;;;;6187176;23;20130;-81
2024/01/27 04:42:34;;;;;;;1.35;0.63;;;17.60;61.10;;;;;;6161026;23;20143;-81
2024/01/27 04:45:01;;;;;;;0.45;0.45;;;17.60;61.20;;;;;;6159095;23;20213;-81
2024/01/27 04:47:27;;;;;;;0.60;0.50;;;17.70;61.30;;;;;;6136082;23;20182;-83
2024/01/27 04:49:53;;;;;;;0.40;0.40;;;17.60;61.20;;;;;;6133897;23;20166;-81
2024/01/27 04:52:19;;;;;;;0.40;0.40;;;17.60;61.20;;;;;;6159508;23;20139;-82
2024/01/27 04:54:45;;;;;;;0.65;0.55;;;17.60;61.20;;;;;;6134699;23;20138;-83
2024/01/27 04:57:11;;;;;;;1.17;0.43;;;17.60;61.20;;;;;;6186498;23;20134;-83
2024/01/27 04:59:37;;;;;;;0.40;0.40;;;17.60;61.10;;;;;;6160584;23;20169;-81
2024/01/27 05:02:03;;;;;;;0.77;0.52;;;17.60;61.30;;;;;;6135438;23;20962;-84
2024/01/27 05:04:29;;;;;;;0.60;0.40;;;17.70;61.20;;;;;;6134373;23;20237;-81
2024/01/27 05:06:55;;;;;;;0.75;0.47;;;17.60;61.10;;;;;;6135508;23;20162;-81
2024/01/27 05:09:21;;;;;;;0.38;0.30;;;17.60;61.10;;;;;;6135457;23;20166;-82
2024/01/27 05:11:48;;;;;;;2.40;0.55;;;17.60;61.00;;;;;;6111428;23;20147;-81
2024/01/27 05:14:14;;;;;;;1.05;0.40;;;17.60;61.10;;;;;;6159798;23;20162;-83
2024/01/27 05:16:40;;;;;;;0.50;0.50;;;17.60;61.80;;;;;;6135533;23;20157;-82
2024/01/27 05:19:06;;;;;;;0.40;0.40;;;17.60;61.00;;;;;;6159684;23;20839;-83
2024/01/27 05:21:32;;;;;;;0.57;0.57;;;17.60;61.00;;;;;;6159941;23;20142;-81
2024/01/27 05:23:58;;;;;;;0.60;0.40;;;17.60;61.20;;;;;;6153508;23;20203;-81
2024/01/27 05:28:59;;;;;;;0.63;0.60;;;17.60;61.10;;;;;;6151524;23;20221;-81
2024/01/27 05:31:26;;;;;;;0.77;0.38;;;17.60;60.90;;;;;;6130003;23;20152;-80
2024/01/27 05:33:52;;;;;;;0.40;0.40;;;17.60;60.90;;;;;;6105772;23;20690;-84
2024/01/27 05:36:18;;;;;;;1.75;0.60;;;17.60;61.10;;;;;;6128475;23;20713;-82
2024/01/27 05:38:44;;;;;;;0.82;0.50;;;17.60;60.90;;;;;;6129785;23;20148;-84
2024/01/27 05:41:10;;;;;;;1.20;0.40;;;17.60;60.80;;;;;;6152442;23;20184;-83
2024/01/27 05:43:35;;;;;;;0.43;0.43;;;17.60;60.90;;;;;;6154063;23;20576;-84
2024/01/27 05:46:01;;;;;;;1.08;0.40;;;17.60;60.90;;;;;;6154954;23;20157;-81
2024/01/27 05:50:57;;;;;;;0.40;0.35;;;17.60;61.00;;;;;;6154660;23;20234;-84
2024/01/27 05:53:23;;;;;;;0.50;0.50;;;17.60;60.90;;;;;;6105226;23;20563;-85
2024/01/27 05:55:48;;;;;;;0.35;0.35;;;17.60;60.70;;;;;;6154472;23;20144;-84
2024/01/27 05:58:15;;;;;;;0.50;0.50;;;17.60;61.20;;;;;;6154286;23;20158;-84
2024/01/27 06:00:44;;;;;;;0.52;0.52;;;17.60;60.80;;;;;;6130508;23;20436;-83
2024/01/27 06:03:10;;;;;;;0.40;0.40;;;17.60;61.00;;;;;;6159110;23;20614;-83
2024/01/27 06:05:36;;;;;;;1.40;0.50;;;17.50;61.00;;;;;;6110102;23;20169;-85
2024/01/27 06:08:02;;;;;;;0.80;0.52;;;17.60;61.00;;;;;;6109299;23;20154;-83
2024/01/27 06:10:30;;;;;;;0.73;0.60;;;17.60;61.00;;;;;;6157520;23;20141;-81
2024/01/27 06:12:56;;;;;;;0.60;0.40;;;17.60;61.10;;;;;;6183819;23;20159;-84
2024/01/27 06:15:22;;;;;;;1.08;0.40;;;17.60;61.00;;;;;;6158132;23;20141;-82
2024/01/27 06:17:47;;;;;;;0.90;0.40;;;17.60;61.00;;;;;;6132860;23;20827;-82
2024/01/27 06:20:13;;;;;;;0.50;0.50;;;17.60;60.80;;;;;;6158209;23;20182;-82
2024/01/27 06:22:39;;;;;;;0.60;0.50;;;17.60;61.00;;;;;;6133686;23;20465;-82
2024/01/27 06:25:05;;;;;;;0.60;0.60;;;17.60;60.90;;;;;;6184143;23;20138;-82
2024/01/27 06:27:31;;;;;;;1.15;0.63;;;17.60;61.00;;;;;;6156676;23;20179;-82
2024/01/27 06:29:56;;;;;;;0.43;0.40;;;17.60;61.00;;;;;;6110920;23;20657;-82
2024/01/27 06:32:22;;;;;;;0.47;0.45;;;17.60;60.90;;;;;;6133166;23;20131;-81
2024/01/27 06:34:48;;;;;;;0.50;0.45;;;17.60;61.00;;;;;;6174856;23;21920;-84
2024/01/27 06:37:17;;;;;;;0.75;0.50;;;17.60;61.00;;;;;;6151737;23;20202;-81
2024/01/27 06:39:43;;;;;;;0.60;0.55;;;17.60;60.90;;;;;;6159074;23;20131;-83
2024/01/27 06:42:09;;;;;;;0.38;0.38;;;17.60;61.00;;;;;;6185431;23;20219;-82
2024/01/27 06:44:35;;;;;;;0.82;0.60;;;17.60;60.90;;;;;;6132946;23;20158;-83
2024/01/27 06:47:01;;;;;;;0.85;0.60;;;17.60;61.00;;;;;;6159250;23;20332;-83
2024/01/27 06:49:26;;;;;;;1.13;0.70;;;17.60;61.00;;;;;;6132728;23;20134;-83
2024/01/27 06:51:52;;;;;;;0.40;0.40;;;17.60;60.80;;;;;;6134332;23;20729;-81
2024/01/27 06:54:18;;;;;;;0.77;0.50;;;17.60;60.90;;;;;;6159038;23;20193;-81
2024/01/27 06:56:44;;;;;;;0.43;0.43;;;17.60;60.80;;;;;;6185498;23;20201;-82
2024/01/27 06:59:10;;;;;;;0.95;0.47;;;17.60;61.00;;;;;;6158839;23;20223;-82
2024/01/27 07:01:35;;;;;;;1.10;0.57;;;17.50;60.90;;;;;;6159847;23;20131;-83
2024/01/27 07:04:01;;;;;;;0.82;0.50;;;17.60;60.80;;;;;;6159419;23;20218;-82
2024/01/27 07:09:02;;;;;;;1.00;0.50;;;17.60;60.80;;;;;;6153840;23;20226;-84
2024/01/27 07:11:28;;;;;;;0.68;0.50;;;17.60;60.50;;;;;;6128563;23;20642;-80
2024/01/27 07:13:54;;;;;;;1.00;0.50;;;17.60;60.80;;;;;;6127068;23;20195;-80
2024/01/27 07:16:19;;;;;;;1.27;0.50;;;17.60;60.80;;;;;;6129389;23;20467;-83
2024/01/27 07:18:45;;;;;;;0.43;0.35;;;17.60;60.80;;;;;;6130191;23;20922;-82
2024/01/27 07:21:16;;;;;;;0.40;0.40;;;17.60;60.80;;;;;;6104633;23;20629;-80
2024/01/27 07:23:42;;;;;;;0.60;0.52;;;17.60;60.80;;;;;;6129285;23;20218;-83
2024/01/27 07:26:10;;;;;;;0.57;0.50;;;17.60;60.90;;;;;;6127411;23;20156;-83
2024/01/27 07:28:35;;;;;;;0.60;0.60;;;17.50;60.70;;;;;;6128399;23;20584;-82
2024/01/27 07:31:01;;;;;;;0.57;0.40;;;17.60;60.70;;;;;;6129073;23;20143;-83
2024/01/27 07:33:27;;;;;;;0.63;0.40;;;17.60;60.80;;;;;;6155078;23;20611;-82
2024/01/27 07:35:53;;;;;;;0.73;0.45;;;17.60;60.90;;;;;;6129286;23;20163;-83
2024/01/27 07:38:19;;;;;;;0.45;0.45;;;17.60;60.90;;;;;;6129330;23;20590;-82
2024/01/27 07:40:44;;;;;;;0.40;0.40;;;17.60;61.00;;;;;;6130006;23;20675;-80
2024/01/27 07:43:10;;;;;;;0.32;0.32;;;17.60;60.70;;;;;;6130868;23;20139;-83
2024/01/27 07:45:36;;;;;;;1.00;0.50;;;17.60;60.80;;;;;;6107428;23;20182;-81
2024/01/27 07:48:04;;;;;;;0.45;0.40;;;17.50;60.40;;;;;;6132696;23;20586;-82
2024/01/27 07:50:34;;;;;;;0.40;0.38;;;17.60;60.50;;;;;;6108691;23;20155;-84
2024/01/27 07:53:05;;;;;;;1.40;0.60;;;17.60;60.50;;;;;;6105970;23;20186;-81
2024/01/27 07:55:35;;;;;;;0.60;0.45;;;17.70;60.30;;;;;;6082899;23;20614;-81
2024/01/27 07:58:01;;;;;;;0.40;0.40;;;17.70;60.60;;;;;;6082322;23;20151;-81
2024/01/27 08:00:27;;;;;;;2.60;0.50;;;17.70;60.50;;;;;;6131941;23;20609;-81
2024/01/27 08:02:53;;;;;;;0.40;0.40;;;17.70;59.90;;;;;;6131758;23;20151;-82
2024/01/27 08:05:19;;;;;;;1.55;0.50;;;17.70;59.70;;;;;;6131990;23;20138;-83
2024/01/27 08:07:49;;;;;;;1.00;0.45;;;17.80;59.30;;;;;;6103328;23;20286;-81
2024/01/27 08:10:19;;;;;;;0.40;0.40;;;17.90;59.20;;;;;;6078712;23;20178;-82
2024/01/27 08:12:47;;;;;;;0.50;0.50;;;17.90;59.10;;;;;;6101833;23;20227;-80
2024/01/27 08:15:13;;;;;;;0.50;0.50;;;18.00;58.80;;;;;;6102815;23;20615;-82
2024/01/27 08:17:39;;;;;;;0.85;0.45;;;17.90;58.70;;;;;;6101847;23;20132;-82
2024/01/27 08:20:06;;;;;;;1.00;0.60;;;18.00;59.00;;;;;;6128672;23;20156;-82
2024/01/27 08:22:31;;;;;;;0.40;0.40;;;18.00;59.00;;;;;;6079139;23;20230;-80
2024/01/27 08:24:57;;;;;;;0.98;0.65;;;18.00;59.50;;;;;;6102822;23;20183;-81
2024/01/27 08:27:23;;;;;;;0.73;0.60;;;17.90;59.40;;;;;;6127589;23;20215;-83
2024/01/27 08:29:49;;;;;;;0.55;0.47;;;18.00;59.50;;;;;;6076985;23;20158;-81
2024/01/27 08:32:15;;;;;;;0.52;0.40;;;17.90;59.40;;;;;;6101038;23;20216;-81
2024/01/27 08:34:40;;;;;;;0.40;0.40;;;18.00;59.60;;;;;;6076826;23;20149;-82
2024/01/27 08:37:16;;;;;;;1.50;0.50;;;18.00;59.60;;;;;;6097983;23;20211;-81
2024/01/27 08:39:42;;;;;;;0.70;0.60;;;18.00;59.50;;;;;;6098779;23;20132;-82
2024/01/27 08:42:07;;;;;;;0.50;0.43;;;18.00;59.60;;;;;;6100763;23;20132;-82
2024/01/27 08:44:33;;;;;;;0.60;0.50;;;18.00;59.00;;;;;;6100889;23;20152;-79
2024/01/27 08:46:59;;;;;;;0.82;0.50;;;18.10;58.90;;;;;;6100762;23;20139;-83
2024/01/27 08:49:26;;;;;;;0.55;0.40;;;18.00;58.80;;;;;;6100897;23;20140;-84
2024/01/27 08:51:55;;;;;;;1.85;0.52;;;18.10;59.10;;;;;;6101883;23;20144;-83
2024/01/27 08:54:21;;;;;;;0.88;0.40;;;18.00;59.20;;;;;;6101142;23;20180;-82
2024/01/27 08:56:50;;;;;;;2.20;0.50;;;18.10;58.30;;;;;;6151750;23;20151;-83
2024/01/27 08:59:16;;;;;;;0.98;0.40;;;18.00;59.10;;;;;;6102660;23;20234;-82
2024/01/27 09:02:20;;;;;;;1.02;0.50;;;18.10;58.60;;;;;;6079312;23;20148;-81
2024/01/27 09:05:09;;;;;;;1.50;0.60;;;18.10;58.40;;;;;;6059935;23;20543;-83
2024/01/27 09:07:35;;;;;;;1.15;0.40;;;18.30;58.30;;;;;;6045308;23;20232;-82
2024/01/27 09:10:04;;;;;;;0.57;0.40;;;18.20;58.30;;;;;;6068612;23;20153;-83
2024/01/27 09:12:37;;;;;;;1.10;0.50;;;18.30;57.50;;;;;;6067159;23;20181;-84
2024/01/27 09:15:11;;;;;;;1.02;0.50;;;18.50;56.90;;;;;;6019972;23;20153;-81
2024/01/27 09:17:39;;;;;;;4.88;0.60;;;18.40;56.80;;;;;;5995885;23;20161;-81
2024/01/27 09:20:10;;;;;;;2.05;0.50;;;18.40;56.90;;;;;;6067100;23;20241;-83
2024/01/27 09:22:37;;;;;;;1.30;0.50;;;18.40;56.70;;;;;;6019385;23;20167;-81
2024/01/27 09:25:29;;;;;;;1.23;0.50;;;18.40;56.50;;;;;;6042854;23;20838;-83
2024/01/27 09:28:00;;;;;;;1.52;0.43;;;18.30;56.70;;;;;;6066514;23;20240;-82
2024/01/27 09:30:30;;;;;;;0.70;0.55;;;18.40;56.20;;;;;;6043665;23;20134;-81
2024/01/27 09:32:56;;;;;;;0.68;0.40;;;18.40;57.30;;;;;;6017866;23;20196;-81
2024/01/27 09:35:23;;;;;;;0.47;0.47;;;18.30;57.40;;;;;;6066882;23;20162;-81
2024/01/27 09:37:56;;;;;;;1.48;0.50;;;18.40;57.10;;;;;;6018018;23;20687;-82
2024/01/27 09:40:24;;;;;;;1.95;0.50;;;18.30;58.20;;;;;;6075133;23;20152;-81
2024/01/27 09:42:57;;;;;;;1.55;0.50;;;18.30;57.30;;;;;;6102732;23;20158;-81
2024/01/27 09:45:26;;;;;;;1.33;0.55;;;18.30;57.40;;;;;;6054556;23;20155;-81
2024/01/27 09:47:53;;;;;;;2.17;0.50;;;18.30;58.80;;;;;;6030798;23;20163;-83
2024/01/27 09:50:19;;;;;;;1.30;0.40;;;18.30;57.30;;;;;;6103512;23;20132;-80
2024/01/27 09:52:48;;;;;;;3.15;0.63;;;18.30;58.80;;;;;;6104515;23;20168;-84
2024/01/27 09:55:22;;;;;;;1.92;0.60;;;18.20;58.60;;;;;;6079292;23;20283;-84
2024/01/27 09:57:52;;;;;;;0.77;0.40;;;18.20;58.20;;;;;;6011520;23;20206;-82
2024/01/27 10:00:20;;;;;;;2.45;0.68;;;18.30;57.50;;;;;;6080151;23;20491;-83
2024/01/27 10:02:57;;;;;;;1.75;0.40;;;18.30;58.30;;;;;;6130023;23;20163;-82
2024/01/27 10:05:29;;;;;;;1.50;0.55;;;18.30;59.10;;;;;;6106349;23;20160;-84
2024/01/27 10:08:10;;;;;;;2.38;0.50;;;18.30;58.60;;;;;;6090842;23;20223;-84
2024/01/27 10:10:36;;;;;;;1.33;0.57;;;18.30;59.40;;;;;;6134756;23;20167;-83
2024/01/27 10:18:28;;;;;;;2.08;0.60;;;18.30;59.20;;;;;;6159998;23;20225;-82
2024/01/27 10:20:55;;;;;;;4.35;0.45;;;18.30;59.30;;;;;;5984620;23;20599;-84
2024/01/27 10:23:24;;;;;;;0.63;0.40;;;18.30;59.50;;;;;;6050635;23;20207;-84
2024/01/27 10:25:51;;;;;;;0.88;0.47;;;18.30;58.70;;;;;;6046418;23;20145;-82
2024/01/27 10:28:26;;;;;;;2.55;0.50;;;18.30;58.70;;;;;;6022576;23;20804;-82
2024/01/27 10:30:54;;;;;;;2.83;0.60;;;18.40;59.00;;;;;;6024387;23;20149;-82
2024/01/27 10:33:24;;;;;;;2.38;0.57;;;18.40;59.00;;;;;;6022860;23;20180;-80
2024/01/27 10:36:00;;;;;;;0.80;0.50;;;18.30;58.50;;;;;;6023463;23;20145;-82
2024/01/27 10:38:40;;;;;;;0.57;0.40;;;18.30;58.70;;;;;;6024587;23;20137;-84
2024/01/27 10:41:11;;;;;;;2.88;0.68;;;18.40;58.90;;;;;;6022696;23;20169;-85
2024/01/27 10:43:46;;;;;;;0.45;0.40;;;18.30;59.10;;;;;;6022015;23;20250;-81
2024/01/27 10:46:12;;;;;;;2.33;0.40;;;18.40;58.80;;;;;;6021435;23;20149;-81
2024/01/27 10:48:42;;;;;;;0.50;0.43;;;18.40;58.70;;;;;;6021982;23;20509;-81
2024/01/27 10:51:12;;;;;;;1.70;0.45;;;18.40;59.50;;;;;;6022136;23;20150;-82
2024/01/27 10:53:39;;;;;;;0.50;0.40;;;18.40;59.00;;;;;;5974611;23;20205;-82
2024/01/27 10:56:09;;;;;;;0.50;0.40;;;18.50;58.50;;;;;;6020227;23;20273;-82
2024/01/27 10:58:41;;;;;;;2.13;0.40;;;18.50;58.80;;;;;;6046487;23;20169;-80
2024/01/27 11:01:11;;;;;;;1.58;0.57;;;18.60;58.00;;;;;;6027940;23;20149;-83
2024/01/27 11:03:39;;;;;;;0.45;0.40;;;18.60;57.60;;;;;;6062974;23;20187;-83
2024/01/27 11:06:09;;;;;;;1.67;0.50;;;18.60;58.20;;;;;;6118722;23;20140;-83
2024/01/27 11:08:51;;;;;;;1.83;0.50;;;18.70;57.40;;;;;;6120762;23;20139;-82
2024/01/27 11:11:21;;;;;;;1.45;0.50;;;18.70;57.90;;;;;;6140349;23;20507;-82
2024/01/27 11:14:26;;;;;;;2.75;0.45;;;18.70;57.30;;;;;;6046497;23;20250;-84
2024/01/27 11:17:26;;;;;;;1.30;0.60;;;18.70;57.50;;;;;;6022746;23;20248;-83
2024/01/27 11:54:18;;;;;;;3.08;0.55;;;18.80;58.10;;;;;;5975304;23;20265;-82
2024/01/27 11:57:37;;;;;;;2.45;0.57;;;18.80;57.70;;;;;;6019576;23;20152;-85
2024/01/27 12:00:11;;;;;;;1.35;0.55;;;18.80;59.00;;;;;;6071365;23;20175;-83
2024/01/27 12:02:41;;;;;;;0.40;0.40;;;18.80;57.70;;;;;;6059048;23;20163;-83
2024/01/27 12:05:08;;;;;;;0.75;0.60;;;18.90;58.40;;;;;;6085579;23;20163;-84
2024/01/27 12:45:02;;;;;;;1.98;0.57;;;18.70;60.70;;;;;;6186331;23;20206;-84
2024/01/27 12:50:15;;;;;;;6.70;0.80;;;18.60;61.20;;;;;;6162424;23;20637;-84
2024/01/27 12:52:42;;;;;;;1.95;0.50;;;18.70;61.40;;;;;;6101807;23;20239;-81
2024/01/27 12:55:08;;;;;;;3.40;0.75;;;18.70;61.40;;;;;;6055530;23;20195;-83
2024/01/27 12:57:39;;;;;;;1.25;0.50;;;18.70;60.80;;;;;;6053388;23;20219;-84
2024/01/27 13:03:39;;;;;;;6.35;0.93;;;18.80;60.40;;;;;;6102597;23;20160;-84
2024/01/27 13:06:43;;;;;;;2.88;0.68;;;18.90;61.60;;;;;;5989512;23;20166;-82
2024/01/27 13:09:20;;;;;;;4.18;0.57;;;18.90;61.00;;;;;;5891830;24;20152;-81
2024/01/27 13:12:03;;;;;;;7.63;0.80;;;18.80;60.50;;;;;;5891407;24;20176;-84
2024/01/27 13:16:00;;;;;;;1.25;0.70;;;18.90;59.30;;;;;;5892594;24;20196;-86
2024/01/27 13:22:25;;;;;;;;;;;;;;;;;;;;;
2024/01/27 13:29:26;;;;;;;;;;;;;;;;;;;;;
2024/01/27 13:32:21;;;;;;;5.00;0.60;;;19.10;60.00;;;;;;5765103;24;20208;-85
2024/01/27 13:35:01;;;;;;;4.50;0.63;;;19.20;60.10;;;;;;5767568;24;20208;-82
2024/01/27 13:37:46;;;;;;;1.85;0.70;;;19.10;61.00;;;;;;5780626;24;20224;-83
2024/01/27 13:40:38;;;;;;;2.08;0.80;;;19.20;61.10;;;;;;5804598;24;20180;-82
2024/01/27 13:44:35;;;;;;;;;;;;;;;;;;;;;
2024/01/27 13:46:33;;;;;;;3.00;0.40;;;19.30;61.40;;;;;;5794250;24;20174;-83
2024/01/27 13:50:08;;;;;;;;;;;;;;;;;;;;;
2024/01/27 13:53:06;;;;;;;3.30;0.77;;;19.20;61.60;;;;;;5704963;25;20166;-85
2024/01/27 18:49:31;;;;;;;1.92;1.00;;;19.50;65.20;;;;;;6155773;23;20470;-85
2024/01/27 18:52:30;;;;;;;1.60;0.73;;;19.40;65.70;;;;;;6141679;23;20135;-84
2024/01/27 18:55:25;;;;;;;2.83;1.05;;;19.40;66.00;;;;;;6102929;23;20224;-85
2024/01/27 18:58:08;;;;;;;2.13;0.77;;;19.30;65.90;;;;;;6074601;23;20178;-83
2024/01/27 19:00:35;;;;;;;2.30;0.93;;;19.30;65.40;;;;;;6016879;23;20161;-85
2024/01/27 19:03:06;;;;;;;2.92;1.08;;;19.30;65.90;;;;;;6033597;23;20152;-83
2024/01/27 19:05:34;;;;;;;1.38;0.82;;;19.20;66.00;;;;;;6059378;23;20667;-83
2024/01/27 19:08:24;;;;;;;1.83;1.00;;;19.20;65.50;;;;;;6033185;23;20141;-85
2024/01/27 19:10:52;;;;;;;1.88;0.85;;;19.20;65.60;;;;;;6023354;23;20154;-86
2024/01/27 19:13:24;;;;;;;2.70;0.75;;;19.20;65.50;;;;;;6022854;23;20186;-86
2024/01/27 19:15:55;;;;;;;2.78;0.98;;;19.20;65.60;;;;;;5964758;24;20181;-85
2024/01/27 19:18:22;;;;;;;2.35;0.90;;;19.10;66.00;;;;;;5968477;23;20499;-84
2024/01/27 19:20:48;;;;;;;1.90;0.80;;;19.00;65.60;;;;;;5999940;23;20201;-85
2024/01/27 19:23:21;;;;;;;2.03;0.80;;;19.20;64.90;;;;;;6002088;23;20601;-84
2024/01/27 19:25:49;;;;;;;1.27;0.80;;;19.10;65.30;;;;;;6027251;23;20200;-85
2024/01/27 19:28:15;;;;;;;2.85;1.00;;;19.10;63.00;;;;;;6002813;23;20158;-84
2024/01/27 19:30:42;;;;;;;1.67;0.70;;;19.10;64.30;;;;;;6004885;23;20336;-84
2024/01/27 19:33:10;;;;;;;2.55;1.00;;;19.10;63.80;;;;;;6008085;23;20260;-84
2024/01/27 19:35:38;;;;;;;2.13;1.00;;;19.20;63.20;;;;;;6055631;23;20149;-84
2024/01/27 19:38:04;;;;;;;1.98;0.80;;;19.20;62.50;;;;;;6033594;23;20138;-84
2024/01/27 19:40:34;;;;;;;1.50;0.88;;;19.20;62.90;;;;;;6032528;23;20302;-84
2024/01/27 19:43:00;;;;;;;1.33;0.90;;;19.20;62.60;;;;;;6009608;23;20146;-84
2024/01/27 19:45:29;;;;;;;1.67;1.00;;;19.20;63.20;;;;;;6011356;23;20145;-84
2024/01/27 19:53:19;;;;;;;1.23;0.80;;;19.10;63.60;;;;;;6200315;23;20202;-84
2024/01/27 19:55:46;;;;;;;1.55;0.85;;;19.00;63.00;;;;;;6150143;23;20146;-83
2024/01/27 20:00:38;;;;;;;1.50;0.80;;;19.00;62.90;;;;;;6173339;23;20210;-82
2024/01/27 20:03:04;;;;;;;2.78;0.82;;;19.10;63.80;;;;;;6126063;23;20155;-85
2024/01/27 20:05:30;;;;;;;2.13;0.77;;;19.10;63.10;;;;;;6126064;23;20150;-83
2024/01/27 20:07:57;;;;;;;0.85;0.60;;;19.00;63.70;;;;;;6174594;23;20485;-84
2024/01/27 20:10:27;;;;;;;1.70;0.90;;;19.00;62.70;;;;;;6126129;23;20143;-83
2024/01/27 20:12:56;;;;;;;1.75;0.80;;;19.00;63.20;;;;;;6126569;23;20237;-83
2024/01/27 20:15:23;;;;;;;1.42;0.80;;;19.00;62.70;;;;;;6152658;23;20135;-83
2024/01/27 20:17:51;;;;;;;1.45;0.80;;;19.00;62.70;;;;;;6150927;23;20130;-83
2024/01/27 20:20:18;;;;;;;2.05;1.10;;;19.00;62.00;;;;;;6125716;23;20154;-83
2024/01/27 20:22:45;;;;;;;1.33;0.70;;;19.00;62.00;;;;;;6126729;23;20147;-84
2024/01/27 20:25:12;;;;;;;1.75;0.95;;;19.00;63.80;;;;;;6150221;23;20152;-84